Aviation Discussion


.AVIATION /07Z TUESDAY THROUGH SATURDAY/...

VFR EXPECTED TDA. PATCHY FOG MAY IMPACT CHO-MRB EARLY WEDNESDAY
MORNING.

THU...VFR UNDER HIPRES.
FRI AND SAT...MAINLY VFR THO MAY HV LCL FLGT RESTRICTIONS IN SCT 
SHRA/TSRA.

 

Terminal Aviation Forecasts

TAFBWI (View previous versions )
KBWI 291136Z 2912/3018 27006KT P6SM BKN060
     FM291300 31006KT P6SM SCT090
     FM300600 00000KT P6SM FEW250=

TAFCHO (View previous versions )
KCHO 291136Z 2912/3012 VRB03KT P6SM SCT090
     FM291500 34007KT P6SM SCT090
     FM292300 VRB03KT P6SM SCT050
     FM300700 34004KT P6SM SCT250=

AMENDED TAFDCA (View previous versions )
KDCA 291200Z 2912/3012 32010G16KT P6SM BKN070
     FM291400 32009KT P6SM SCT090=

TAFIAD (View previous versions )
KIAD 291136Z 2912/3018 31006KT P6SM SCT090
     FM300300 00000KT P6SM FEW050
     FM300600 00000KT P6SM FEW250=

TAFMRB (View previous versions )
KMRB 291136Z 2912/3012 30006KT P6SM SCT090
     FM300100 00000KT P6SM FEW050
     FM300600 00000KT P6SM FEW250=

TAFMTN (View previous versions )
KMTN 291136Z 2912/3012 26006KT P6SM BKN060
     FM291300 31006KT P6SM SCT090
     FM300000 00000KT P6SM FEW050
     FM300600 VRB03KT P6SM FEW250=


Meteorological Impact Statement

ZDC MIS 01 VALID 291115-291900
...FOR ATC PLANNING PURPOSES ONLY...
OCNL LGT-MOD TURB ABV FL200 E ZDC DUE TO JETSTREAM SHEAR. SFC WINDS 
NW-N 5-15KT...OCNL LGT-MOD TURB BLW 080 MTNS AND N ZDC. ISOLD-WDLY 
SCT SHRA PSBL MTNS AND ALNG COAST. TOPS MAINLY FL200'S...LCL TO 
FL350.

Surface Map


TRACON Thunderstorm Forecast


Vertical Wind Profiles